Time;durP1;ratioP1;P1;durP2;ratioP2;P2;SDS_P1;SDS_P2;PMS_P1;PMS_P2;Temp;Humidity;BMP_temperature;BMP_pressure;BME280_temperature;BME280_humidity;BME280_pressure;Samples;Min_cycle;Max_cycle;Signal;HPM_P1;HPM_P2
2023/07/27 00:01:34;;;;;;;60.60;8.50;;;27.90;47.20;;;;;;5025955;28;20709;-81
2023/07/27 00:04:01;;;;;;;36.27;6.30;;;27.90;47.20;;;;;;5027712;28;20280;-81
2023/07/27 00:06:28;;;;;;;47.07;7.17;;;27.90;47.20;;;;;;5025168;28;20303;-86
2023/07/27 00:08:57;;;;;;;35.57;6.57;;;27.90;47.20;;;;;;5029329;27;20205;-83
2023/07/27 00:11:25;;;;;;;36.80;6.63;;;27.90;47.20;;;;;;5027241;28;20225;-87
2023/07/27 00:13:52;;;;;;;36.63;6.50;;;27.90;47.20;;;;;;5027119;28;20649;-86
2023/07/27 00:16:19;;;;;;;46.10;7.20;;;27.90;47.30;;;;;;5026111;28;20205;-86
2023/07/27 00:18:46;;;;;;;41.33;6.97;;;27.90;47.30;;;;;;5026378;27;20724;-86
2023/07/27 00:21:13;;;;;;;52.33;7.63;;;27.90;47.30;;;;;;5026497;28;20661;-86
2023/07/27 00:23:39;;;;;;;32.17;6.30;;;27.90;47.30;;;;;;5027278;28;20956;-81
2023/07/27 00:26:06;;;;;;;33.33;6.03;;;27.90;47.30;;;;;;5027415;28;20197;-84
2023/07/27 00:28:35;;;;;;;45.43;7.17;;;27.90;47.30;;;;;;5026077;28;20213;-88
2023/07/27 00:31:01;;;;;;;30.23;6.00;;;27.90;47.30;;;;;;5028380;28;20277;-87
2023/07/27 00:33:28;;;;;;;35.87;6.80;;;27.90;47.40;;;;;;5026576;28;20197;-85
2023/07/27 00:35:56;;;;;;;37.93;6.47;;;27.90;47.70;;;;;;5022903;28;20255;-85
2023/07/27 00:38:23;;;;;;;39.93;6.80;;;27.80;47.40;;;;;;5030416;28;20320;-82
2023/07/27 00:40:50;;;;;;;34.70;5.97;;;27.90;47.40;;;;;;5025107;28;20200;-81
2023/07/27 00:43:17;;;;;;;47.90;7.30;;;27.80;47.40;;;;;;5022810;28;20215;-72
2023/07/27 00:45:47;;;;;;;34.60;6.40;;;27.90;47.50;;;;;;5026959;28;20200;-69
2023/07/27 00:48:15;;;;;;;34.37;6.57;;;27.90;47.50;;;;;;5026950;28;20193;-74
2023/07/27 00:50:43;;;;;;;30.57;6.07;;;27.90;47.50;;;;;;5027097;28;20220;-73
2023/07/27 00:53:10;;;;;;;26.93;5.37;;;27.90;47.50;;;;;;5025670;28;20209;-81
2023/07/27 00:55:37;;;;;;;53.03;8.43;;;27.90;47.50;;;;;;5023968;28;20207;-72
2023/07/27 00:58:04;;;;;;;35.30;6.70;;;27.80;47.50;;;;;;5026832;28;20229;-73
2023/07/27 01:00:33;;;;;;;28.60;5.63;;;27.80;47.50;;;;;;5026696;28;20215;-82
2023/07/27 01:03:03;;;;;;;29.73;5.93;;;27.80;47.50;;;;;;5025956;28;20201;-80
2023/07/27 01:05:30;;;;;;;40.20;6.77;;;27.80;47.60;;;;;;5026446;28;20197;-76
2023/07/27 01:07:57;;;;;;;36.03;6.43;;;27.80;47.50;;;;;;5026833;27;20212;-72
2023/07/27 01:10:35;;;;;;;43.97;6.87;;;27.80;47.60;;;;;;5027005;28;20212;-78
2023/07/27 01:13:09;;;;;;;31.93;5.80;;;27.80;47.60;;;;;;5015350;28;20200;-71
2023/07/27 01:15:43;;;;;;;36.13;6.07;;;27.80;47.60;;;;;;5027265;28;20287;-65
2023/07/27 01:18:19;;;;;;;40.03;6.87;;;27.80;47.60;;;;;;5024907;28;20270;-66
2023/07/27 01:20:51;;;;;;;43.77;7.37;;;27.80;47.70;;;;;;5007203;28;20288;-65
2023/07/27 01:23:45;;;;;;;31.83;6.13;;;27.80;47.70;;;;;;5017019;27;20205;-70
2023/07/27 01:26:34;;;;;;;33.20;6.13;;;27.80;47.70;;;;;;5025229;28;20564;-66
2023/07/27 01:29:09;;;;;;;35.77;6.30;;;27.80;47.70;;;;;;5027198;28;20721;-65
2023/07/27 01:31:42;;;;;;;28.57;5.43;;;27.80;47.70;;;;;;5026163;28;20207;-66
2023/07/27 01:34:15;;;;;;;27.20;5.40;;;27.70;47.60;;;;;;5026701;28;20208;-69
2023/07/27 01:36:44;;;;;;;36.13;6.67;;;27.70;47.70;;;;;;5025668;28;20197;-71
2023/07/27 01:39:12;;;;;;;30.87;6.20;;;27.70;47.70;;;;;;5026615;28;20708;-75
2023/07/27 01:41:42;;;;;;;46.53;7.17;;;27.70;47.80;;;;;;5023820;28;20206;-65
2023/07/27 01:44:11;;;;;;;47.93;7.10;;;27.70;47.80;;;;;;5022656;28;20208;-81
2023/07/27 01:46:40;;;;;;;28.43;5.73;;;27.70;47.80;;;;;;5024543;28;20201;-76
2023/07/27 01:49:09;;;;;;;44.23;7.27;;;27.70;47.80;;;;;;5024989;28;20209;-65
2023/07/27 01:51:38;;;;;;;51.30;7.97;;;27.70;47.80;;;;;;5024340;28;20189;-69
2023/07/27 01:54:07;;;;;;;27.73;5.63;;;27.70;47.80;;;;;;5040572;28;20196;-66
2023/07/27 01:56:34;;;;;;;71.20;9.37;;;27.70;47.80;;;;;;5016985;28;20205;-71
2023/07/27 01:59:02;;;;;;;30.77;6.13;;;27.70;47.80;;;;;;5026101;28;20243;-66
2023/07/27 02:01:30;;;;;;;34.63;6.13;;;27.70;47.80;;;;;;5025638;28;20204;-67
2023/07/27 02:03:59;;;;;;;36.97;6.57;;;27.70;47.80;;;;;;5024927;28;20197;-67
2023/07/27 02:06:26;;;;;;;29.90;5.80;;;27.70;47.80;;;;;;5023526;28;20649;-66
2023/07/27 02:08:53;;;;;;;48.23;7.20;;;27.70;48.10;;;;;;5024361;28;20205;-65
2023/07/27 02:11:23;;;;;;;31.87;6.07;;;27.60;47.70;;;;;;5025501;28;20226;-66
2023/07/27 02:13:56;;;;;;;46.53;7.17;;;27.60;47.70;;;;;;5023644;28;20287;-67
2023/07/27 02:16:29;;;;;;;34.63;6.37;;;27.70;47.80;;;;;;5022307;28;20209;-66
2023/07/27 02:18:59;;;;;;;60.23;8.53;;;27.70;47.80;;;;;;5022105;28;20232;-66
2023/07/27 02:21:28;;;;;;;29.07;5.53;;;27.70;47.80;;;;;;5025180;28;20549;-66
2023/07/27 02:23:56;;;;;;;23.23;5.10;;;27.60;47.70;;;;;;5025730;28;20205;-66
2023/07/27 02:26:23;;;;;;;25.93;5.87;;;27.70;47.80;;;;;;5025895;28;20205;-65
2023/07/27 02:28:50;;;;;;;23.00;5.10;;;27.60;47.90;;;;;;5016061;28;20658;-69
2023/07/27 02:31:17;;;;;;;26.20;5.87;;;27.60;47.80;;;;;;5021792;28;20193;-66
2023/07/27 02:33:44;;;;;;;35.53;6.57;;;27.60;47.90;;;;;;5027274;28;20204;-66
2023/07/27 02:36:12;;;;;;;19.97;5.37;;;27.60;47.90;;;;;;5025824;28;20193;-66
2023/07/27 02:38:39;;;;;;;25.87;5.17;;;27.60;47.90;;;;;;5023639;28;20240;-66
2023/07/27 02:41:06;;;;;;;26.67;5.70;;;27.60;47.90;;;;;;5023619;28;20201;-70
2023/07/27 02:43:32;;;;;;;23.40;5.30;;;27.60;48.00;;;;;;5023924;28;20284;-66
2023/07/27 02:46:00;;;;;;;20.90;5.00;;;27.60;48.00;;;;;;5024322;28;20212;-66
2023/07/27 02:48:27;;;;;;;25.37;5.33;;;27.60;48.00;;;;;;5023966;28;20227;-66
2023/07/27 02:50:54;;;;;;;27.50;5.73;;;27.60;48.00;;;;;;5022926;28;20213;-65
2023/07/27 02:53:23;;;;;;;24.57;5.33;;;27.50;48.00;;;;;;5024712;28;20207;-75
2023/07/27 02:56:00;;;;;;;25.67;5.10;;;27.50;48.60;;;;;;5024328;28;20203;-66
2023/07/27 02:58:27;;;;;;;25.37;5.33;;;27.50;48.10;;;;;;5025344;28;20221;-68
2023/07/27 03:00:55;;;;;;;26.33;5.40;;;27.50;48.00;;;;;;5037224;28;20228;-66
2023/07/27 03:03:22;;;;;;;26.50;5.63;;;27.50;48.10;;;;;;5045259;28;20231;-66
2023/07/27 03:05:56;;;;;;;24.17;5.43;;;27.50;48.10;;;;;;5029336;28;20216;-66
2023/07/27 03:08:24;;;;;;;33.93;6.47;;;27.50;48.10;;;;;;5040453;28;20204;-68
2023/07/27 03:10:51;;;;;;;32.53;5.90;;;27.50;48.20;;;;;;5035414;28;20232;-69
2023/07/27 03:13:18;;;;;;;23.47;5.30;;;27.50;48.20;;;;;;5025546;28;20261;-70
2023/07/27 03:15:45;;;;;;;26.57;5.53;;;27.50;48.20;;;;;;5024980;28;20679;-72
2023/07/27 03:18:12;;;;;;;24.40;4.97;;;27.50;48.20;;;;;;5019082;28;20228;-67
2023/07/27 03:20:39;;;;;;;23.93;5.17;;;27.50;48.90;;;;;;5024849;28;20582;-70
2023/07/27 03:23:06;;;;;;;24.87;5.27;;;27.40;48.80;;;;;;5024286;28;20201;-67
2023/07/27 03:25:35;;;;;;;25.60;5.37;;;27.40;48.30;;;;;;5025000;28;20208;-67
2023/07/27 03:28:02;;;;;;;26.73;5.60;;;27.50;48.30;;;;;;5026011;28;20205;-74
2023/07/27 03:30:29;;;;;;;24.30;5.00;;;27.50;48.30;;;;;;5025503;28;20205;-66
2023/07/27 03:32:56;;;;;;;33.30;6.33;;;27.50;48.30;;;;;;5024372;28;20212;-65
2023/07/27 03:35:23;;;;;;;23.53;5.30;;;27.40;48.30;;;;;;5025438;28;20214;-72
2023/07/27 03:37:51;;;;;;;23.40;5.30;;;27.50;48.40;;;;;;5024561;28;20196;-66
2023/07/27 03:40:18;;;;;;;31.20;6.10;;;27.40;48.40;;;;;;5023978;28;20270;-68
2023/07/27 03:42:46;;;;;;;28.80;5.80;;;27.40;48.40;;;;;;5022010;28;20220;-70
2023/07/27 03:45:15;;;;;;;26.80;5.30;;;27.40;49.00;;;;;;5022050;28;20653;-66
2023/07/27 03:47:42;;;;;;;27.13;5.57;;;27.40;48.40;;;;;;5024204;28;20205;-66
2023/07/27 03:50:09;;;;;;;46.70;7.17;;;27.40;48.40;;;;;;5023335;28;20748;-66
2023/07/27 03:52:36;;;;;;;54.57;7.90;;;27.40;48.40;;;;;;5022918;28;20657;-66
2023/07/27 03:55:03;;;;;;;27.83;5.77;;;27.40;48.40;;;;;;5019749;28;20196;-68
2023/07/27 03:57:30;;;;;;;39.00;6.43;;;27.40;48.40;;;;;;5022619;28;20211;-70
2023/07/27 03:59:59;;;;;;;30.60;6.00;;;27.40;48.40;;;;;;5024792;28;20320;-69
2023/07/27 04:02:27;;;;;;;22.10;5.00;;;27.40;48.40;;;;;;5022446;28;20204;-68
2023/07/27 04:04:54;;;;;;;44.17;6.53;;;27.40;48.40;;;;;;5022789;28;20205;-70
2023/07/27 04:07:22;;;;;;;36.70;6.40;;;27.40;48.40;;;;;;5021167;28;20269;-65
2023/07/27 04:09:49;;;;;;;28.87;5.13;;;27.40;48.50;;;;;;5021575;28;20221;-66
2023/07/27 04:12:15;;;;;;;28.63;5.83;;;27.40;48.50;;;;;;5020815;28;20201;-65
2023/07/27 04:14:42;;;;;;;28.97;5.67;;;27.40;48.60;;;;;;5023592;28;20215;-70
2023/07/27 04:17:10;;;;;;;45.00;7.50;;;27.40;48.50;;;;;;5015082;28;20205;-65
2023/07/27 04:19:37;;;;;;;39.07;6.77;;;27.40;48.60;;;;;;5025003;28;20242;-68
2023/07/27 04:22:05;;;;;;;50.73;7.90;;;27.40;48.60;;;;;;5024530;28;20201;-69
2023/07/27 04:24:31;;;;;;;29.80;5.77;;;27.40;48.60;;;;;;5026730;28;20668;-66
2023/07/27 04:26:58;;;;;;;25.80;5.47;;;27.40;48.60;;;;;;5024503;28;20197;-68
2023/07/27 04:29:25;;;;;;;32.60;6.10;;;27.40;48.70;;;;;;5023540;28;20208;-71
2023/07/27 04:31:52;;;;;;;26.67;5.67;;;27.40;48.60;;;;;;5026673;28;20660;-65
2023/07/27 04:34:20;;;;;;;34.03;6.13;;;27.40;48.70;;;;;;5025061;28;20193;-71
2023/07/27 04:36:48;;;;;;;26.53;5.63;;;27.40;48.70;;;;;;5026542;28;20676;-70
2023/07/27 04:39:15;;;;;;;26.93;5.73;;;27.40;48.70;;;;;;5024900;28;20720;-66
2023/07/27 04:41:42;;;;;;;26.87;5.60;;;27.40;48.70;;;;;;5009961;28;20208;-66
2023/07/27 04:44:09;;;;;;;24.57;4.93;;;27.40;48.70;;;;;;5024565;28;20205;-72
2023/07/27 04:46:36;;;;;;;21.67;5.07;;;27.40;48.70;;;;;;5022906;28;20523;-68
2023/07/27 04:49:03;;;;;;;21.53;4.87;;;27.30;49.20;;;;;;5024552;28;20927;-65
2023/07/27 04:51:31;;;;;;;24.73;5.10;;;27.30;49.10;;;;;;5025298;28;20217;-65
2023/07/27 04:53:58;;;;;;;26.77;5.47;;;27.40;49.00;;;;;;5026152;28;20865;-64
2023/07/27 04:56:25;;;;;;;24.13;5.37;;;27.40;48.90;;;;;;5024681;27;20204;-64
2023/07/27 04:58:52;;;;;;;27.97;5.63;;;27.40;48.90;;;;;;5027073;28;20224;-65
2023/07/27 05:01:19;;;;;;;23.23;5.03;;;27.40;48.90;;;;;;5025385;28;20201;-66
2023/07/27 05:03:46;;;;;;;51.30;7.47;;;27.40;48.90;;;;;;5025810;27;20205;-65
2023/07/27 05:06:12;;;;;;;21.80;4.67;;;27.40;48.80;;;;;;5031670;28;20208;-64
2023/07/27 05:08:41;;;;;;;22.10;5.00;;;27.50;48.90;;;;;;5029666;27;20740;-71
2023/07/27 05:11:08;;;;;;;23.77;5.17;;;27.40;48.90;;;;;;5025851;28;20224;-65
2023/07/27 05:13:34;;;;;;;20.77;4.77;;;27.50;49.00;;;;;;5025097;28;20257;-67
2023/07/27 05:16:01;;;;;;;21.43;5.07;;;27.40;48.90;;;;;;5042791;28;20193;-65
2023/07/27 05:18:28;;;;;;;23.50;5.10;;;27.40;48.90;;;;;;5043783;28;20251;-66
2023/07/27 05:20:56;;;;;;;29.13;5.73;;;27.40;48.90;;;;;;5026285;28;20291;-65
2023/07/27 05:23:23;;;;;;;30.57;5.73;;;27.40;49.00;;;;;;5026768;28;20199;-67
2023/07/27 05:25:52;;;;;;;29.17;5.57;;;27.40;49.00;;;;;;5026330;28;20211;-68
2023/07/27 05:28:19;;;;;;;29.67;5.63;;;27.40;49.00;;;;;;5026532;28;20208;-66
2023/07/27 05:30:45;;;;;;;29.73;5.60;;;27.40;49.00;;;;;;5029014;28;20297;-66
2023/07/27 05:33:13;;;;;;;28.00;5.53;;;27.40;49.10;;;;;;5039440;28;20652;-65
2023/07/27 05:35:40;;;;;;;30.40;5.80;;;27.40;49.10;;;;;;5026176;28;20205;-71
2023/07/27 05:38:07;;;;;;;28.73;5.90;;;27.40;49.10;;;;;;5026067;28;20205;-65
2023/07/27 05:40:36;;;;;;;21.53;4.93;;;27.40;49.10;;;;;;5019939;27;20767;-66
2023/07/27 05:43:05;;;;;;;29.17;5.63;;;27.40;49.10;;;;;;5024135;28;20265;-65
2023/07/27 05:45:32;;;;;;;22.33;4.83;;;27.40;49.70;;;;;;5032600;28;20266;-65
2023/07/27 05:47:57;;;;;;;51.33;7.63;;;27.40;49.10;;;;;;5024362;28;20898;-65
2023/07/27 05:50:25;;;;;;;26.50;5.33;;;27.40;49.10;;;;;;5006628;28;20690;-65
2023/07/27 05:52:52;;;;;;;31.83;5.97;;;27.40;49.10;;;;;;5005726;28;20213;-65
2023/07/27 05:55:19;;;;;;;31.60;5.70;;;27.40;49.10;;;;;;5023726;28;20201;-68
2023/07/27 05:57:47;;;;;;;28.23;5.30;;;27.40;49.20;;;;;;5023701;28;20679;-67
2023/07/27 06:00:16;;;;;;;50.37;7.77;;;27.40;49.20;;;;;;5023038;28;20243;-65
2023/07/27 06:02:43;;;;;;;19.80;4.67;;;27.40;49.20;;;;;;5024139;28;20189;-65
2023/07/27 06:05:11;;;;;;;22.43;5.07;;;27.40;49.10;;;;;;5022426;28;20209;-69
2023/07/27 06:07:38;;;;;;;23.97;5.17;;;27.40;49.20;;;;;;5022746;28;20216;-65
2023/07/27 06:10:05;;;;;;;26.03;5.37;;;27.40;49.20;;;;;;5025196;28;20225;-65
2023/07/27 06:12:32;;;;;;;24.37;5.07;;;27.40;49.20;;;;;;5027871;27;20200;-65
2023/07/27 06:14:59;;;;;;;24.27;5.07;;;27.40;49.20;;;;;;5025497;28;20204;-65
2023/07/27 06:17:28;;;;;;;27.03;5.63;;;27.40;49.30;;;;;;5025537;28;20200;-66
2023/07/27 06:19:54;;;;;;;28.73;5.13;;;27.40;49.30;;;;;;5023658;28;20260;-65
2023/07/27 06:22:21;;;;;;;29.77;5.50;;;27.40;49.30;;;;;;5024645;27;20444;-70
2023/07/27 06:24:48;;;;;;;36.47;6.27;;;27.40;49.40;;;;;;5023010;28;20563;-66
2023/07/27 06:27:15;;;;;;;42.43;6.87;;;27.40;49.40;;;;;;5007884;28;20209;-75
2023/07/27 06:29:42;;;;;;;26.60;5.53;;;27.40;49.40;;;;;;5025727;28;20273;-74
2023/07/27 06:32:09;;;;;;;34.67;6.70;;;27.40;49.50;;;;;;5025148;28;20574;-70
2023/07/27 06:34:37;;;;;;;51.93;8.17;;;27.40;49.50;;;;;;5023381;28;20200;-67
2023/07/27 06:37:05;;;;;;;38.60;6.67;;;27.40;49.50;;;;;;5016443;28;20217;-68
2023/07/27 06:39:32;;;;;;;39.00;6.90;;;27.40;49.50;;;;;;5015903;28;20223;-66
2023/07/27 06:41:59;;;;;;;30.03;5.43;;;27.40;49.50;;;;;;5025595;27;20289;-71
2023/07/27 06:44:26;;;;;;;35.00;6.03;;;27.40;49.50;;;;;;5025435;28;20205;-70
2023/07/27 06:46:53;;;;;;;18.87;4.70;;;27.40;49.40;;;;;;5023504;28;20219;-68
2023/07/27 06:49:20;;;;;;;22.80;5.53;;;27.40;49.50;;;;;;5025312;28;20905;-68
2023/07/27 06:51:48;;;;;;;31.93;6.10;;;27.30;49.40;;;;;;5028585;28;20572;-74
2023/07/27 06:54:15;;;;;;;35.87;6.37;;;27.40;49.50;;;;;;5036218;28;20714;-67
2023/07/27 06:56:42;;;;;;;20.77;4.57;;;27.40;49.60;;;;;;5022778;28;20216;-67
2023/07/27 06:59:09;;;;;;;33.63;6.10;;;27.40;49.60;;;;;;5023868;28;21040;-66
2023/07/27 07:01:36;;;;;;;26.70;5.50;;;27.30;49.60;;;;;;5025560;28;20197;-66
2023/07/27 07:04:02;;;;;;;23.13;5.53;;;27.30;49.70;;;;;;5025016;28;20213;-66
2023/07/27 07:06:29;;;;;;;24.03;5.30;;;27.30;49.70;;;;;;5024110;28;20201;-67
2023/07/27 07:08:58;;;;;;;24.57;5.43;;;27.40;49.90;;;;;;5025435;28;20225;-67
2023/07/27 07:11:24;;;;;;;33.83;5.83;;;27.30;49.90;;;;;;5022988;28;20609;-68
2023/07/27 07:13:51;;;;;;;30.83;5.87;;;27.40;49.90;;;;;;5024575;28;20716;-68
2023/07/27 07:16:18;;;;;;;24.77;5.20;;;27.40;49.90;;;;;;5025490;28;20215;-70
2023/07/27 07:18:45;;;;;;;33.90;6.20;;;27.40;49.90;;;;;;5023962;28;20619;-71
2023/07/27 07:21:12;;;;;;;50.77;7.47;;;27.40;49.90;;;;;;5021939;28;20664;-71
2023/07/27 07:23:39;;;;;;;31.53;6.20;;;27.40;49.90;;;;;;5031049;28;20207;-72
2023/07/27 07:26:07;;;;;;;34.83;6.53;;;27.40;50.10;;;;;;5025637;28;20208;-67
2023/07/27 07:28:34;;;;;;;26.50;5.50;;;27.40;50.10;;;;;;5020234;28;20209;-69
2023/07/27 07:31:01;;;;;;;28.63;5.77;;;27.40;50.10;;;;;;5017120;28;20574;-69
2023/07/27 07:33:28;;;;;;;30.10;5.53;;;27.40;50.10;;;;;;5023099;28;20201;-65
2023/07/27 07:35:55;;;;;;;37.90;6.60;;;27.40;50.10;;;;;;5019347;28;20205;-71
2023/07/27 07:38:22;;;;;;;42.40;6.70;;;27.40;50.10;;;;;;5021614;28;20201;-70
2023/07/27 07:40:48;;;;;;;30.77;5.53;;;27.40;50.10;;;;;;5023127;28;20232;-72
2023/07/27 07:43:17;;;;;;;33.77;6.20;;;27.40;50.10;;;;;;5020626;28;20193;-71
2023/07/27 07:45:44;;;;;;;38.30;6.50;;;27.40;50.20;;;;;;5023388;28;20201;-70
2023/07/27 07:48:11;;;;;;;27.00;5.00;;;27.40;50.20;;;;;;5021619;28;20220;-70
2023/07/27 07:50:38;;;;;;;38.50;6.13;;;27.40;50.30;;;;;;5022405;28;20291;-69
2023/07/27 07:53:06;;;;;;;44.57;6.97;;;27.40;50.30;;;;;;5013417;28;20201;-69
2023/07/27 07:55:35;;;;;;;48.63;7.23;;;27.40;50.30;;;;;;5022984;28;20205;-68
2023/07/27 07:58:03;;;;;;;20.47;4.67;;;27.40;50.60;;;;;;5017791;28;20209;-68
2023/07/27 08:00:31;;;;;;;33.90;6.00;;;27.40;50.40;;;;;;5026234;28;20302;-69
2023/07/27 08:02:58;;;;;;;40.93;6.60;;;27.40;50.40;;;;;;5024900;28;20633;-68
2023/07/27 08:05:25;;;;;;;24.47;5.13;;;27.40;51.00;;;;;;5027585;28;20211;-68
2023/07/27 08:07:52;;;;;;;24.27;5.43;;;27.40;50.30;;;;;;5027214;28;20205;-68
2023/07/27 08:10:19;;;;;;;36.10;6.10;;;27.40;50.40;;;;;;5026240;28;20229;-66
2023/07/27 08:12:49;;;;;;;32.13;6.00;;;27.40;50.30;;;;;;5025017;28;20215;-68
2023/07/27 08:15:17;;;;;;;28.03;5.40;;;27.40;50.30;;;;;;5026175;28;20227;-68
2023/07/27 08:17:45;;;;;;;45.60;7.17;;;27.40;50.30;;;;;;5028868;28;20201;-77
2023/07/27 08:20:13;;;;;;;28.83;5.77;;;27.40;50.30;;;;;;5014852;28;20708;-69
2023/07/27 08:22:39;;;;;;;28.37;5.53;;;27.40;50.40;;;;;;5023314;28;20201;-69
2023/07/27 08:25:07;;;;;;;37.50;6.50;;;27.40;50.40;;;;;;5025865;27;20212;-70
2023/07/27 08:27:35;;;;;;;32.80;5.80;;;27.40;50.40;;;;;;5042630;27;20661;-76
2023/07/27 08:30:02;;;;;;;31.60;5.60;;;27.30;50.40;;;;;;5022624;28;20670;-72
2023/07/27 08:32:28;;;;;;;47.73;7.30;;;27.30;50.40;;;;;;5024182;28;20201;-67
2023/07/27 08:34:57;;;;;;;32.37;5.63;;;27.30;50.40;;;;;;5024900;28;20209;-67
2023/07/27 08:37:24;;;;;;;33.43;5.83;;;27.40;50.50;;;;;;5026335;28;20212;-67
2023/07/27 08:39:51;;;;;;;31.80;5.50;;;27.30;50.50;;;;;;5024749;28;20246;-67
2023/07/27 08:42:19;;;;;;;35.03;5.90;;;27.40;50.60;;;;;;5021029;28;20746;-67
2023/07/27 08:44:46;;;;;;;54.13;7.87;;;27.30;50.60;;;;;;5024596;28;20301;-67
2023/07/27 08:47:14;;;;;;;29.83;5.53;;;27.40;50.60;;;;;;5007392;28;20202;-70
2023/07/27 08:49:42;;;;;;;43.40;6.93;;;27.40;50.60;;;;;;5017135;28;20205;-68
2023/07/27 08:52:13;;;;;;;34.50;6.10;;;27.30;50.60;;;;;;5024973;28;20556;-71
2023/07/27 08:54:40;;;;;;;48.90;7.17;;;27.40;50.70;;;;;;5014128;28;20204;-71
2023/07/27 08:57:07;;;;;;;44.70;6.97;;;27.40;50.70;;;;;;5027987;27;20205;-79
2023/07/27 08:59:35;;;;;;;38.63;6.50;;;27.40;50.70;;;;;;5024786;28;20324;-75
2023/07/27 09:02:02;;;;;;;31.33;5.40;;;27.30;50.70;;;;;;5023239;27;20213;-68
2023/07/27 09:04:29;;;;;;;27.83;5.20;;;27.40;50.80;;;;;;5022285;28;20200;-67
2023/07/27 09:06:56;;;;;;;33.57;5.63;;;27.30;50.70;;;;;;5023966;28;20208;-68
2023/07/27 09:09:25;;;;;;;44.93;7.17;;;27.30;50.70;;;;;;5026589;28;20235;-67
2023/07/27 09:11:54;;;;;;;35.80;5.93;;;27.40;50.90;;;;;;5025035;28;20209;-69
2023/07/27 09:14:21;;;;;;;48.70;6.83;;;27.40;50.80;;;;;;5029143;27;20600;-67
2023/07/27 09:16:49;;;;;;;36.03;6.10;;;27.40;50.80;;;;;;5025741;28;20676;-77
2023/07/27 09:19:18;;;;;;;30.23;5.60;;;27.30;50.80;;;;;;5026770;28;20204;-79
2023/07/27 09:21:48;;;;;;;39.70;6.60;;;27.40;50.90;;;;;;5026190;28;20325;-75
2023/07/27 09:24:16;;;;;;;32.57;5.57;;;27.40;50.90;;;;;;5025161;28;20645;-73
2023/07/27 09:26:49;;;;;;;34.73;6.23;;;27.40;50.90;;;;;;5024696;28;20201;-68
2023/07/27 09:29:17;;;;;;;35.57;5.83;;;27.40;50.90;;;;;;5024951;28;20197;-67
2023/07/27 09:31:45;;;;;;;36.53;5.90;;;27.30;50.90;;;;;;5026973;28;20208;-67
2023/07/27 09:34:12;;;;;;;32.57;5.63;;;27.40;50.90;;;;;;5043932;28;20678;-69
2023/07/27 09:36:39;;;;;;;43.23;6.77;;;27.40;50.90;;;;;;5028081;27;20277;-71
2023/07/27 09:39:06;;;;;;;29.60;5.27;;;27.40;50.90;;;;;;5024681;28;20197;-68
2023/07/27 09:41:34;;;;;;;28.33;5.20;;;27.30;50.90;;;;;;5025885;28;20680;-67
2023/07/27 09:44:03;;;;;;;34.03;5.90;;;27.30;50.90;;;;;;5026483;28;20207;-67
2023/07/27 09:46:30;;;;;;;32.47;5.37;;;27.40;51.00;;;;;;5025167;28;20204;-68
2023/07/27 09:48:58;;;;;;;31.87;5.27;;;27.40;51.10;;;;;;5026404;28;20229;-77
2023/07/27 09:51:27;;;;;;;32.57;5.53;;;27.40;51.10;;;;;;5026531;27;20208;-69
2023/07/27 09:53:55;;;;;;;45.53;6.70;;;27.40;51.20;;;;;;5021528;28;20255;-70
2023/07/27 09:56:22;;;;;;;28.47;5.10;;;27.40;51.20;;;;;;5032007;28;20204;-75
2023/07/27 09:58:49;;;;;;;32.93;5.63;;;27.40;51.20;;;;;;5020536;28;20261;-72
2023/07/27 10:01:19;;;;;;;39.37;6.30;;;27.40;51.10;;;;;;5012961;28;20224;-71
2023/07/27 10:03:46;;;;;;;29.53;5.23;;;27.40;51.20;;;;;;5021739;28;20197;-71
2023/07/27 10:06:16;;;;;;;27.00;5.30;;;27.40;51.10;;;;;;5021743;28;20208;-72
2023/07/27 10:08:43;;;;;;;50.10;7.17;;;27.50;51.20;;;;;;5019867;28;20269;-71
2023/07/27 10:11:10;;;;;;;62.60;8.57;;;27.40;51.10;;;;;;5022415;28;20227;-70
2023/07/27 10:13:40;;;;;;;27.47;5.00;;;27.50;51.20;;;;;;5020974;28;20720;-70
2023/07/27 10:16:10;;;;;;;53.73;7.57;;;27.50;51.20;;;;;;5020109;28;20312;-65
2023/07/27 10:18:42;;;;;;;25.70;4.83;;;27.50;51.20;;;;;;5024907;28;20725;-68
2023/07/27 10:21:23;;;;;;;34.47;5.63;;;27.50;51.30;;;;;;5023213;28;20228;-67
2023/07/27 10:23:54;;;;;;;28.93;5.10;;;27.50;51.40;;;;;;5007493;28;20205;-67
2023/07/27 10:26:21;;;;;;;31.80;5.77;;;27.60;51.30;;;;;;5024222;28;20210;-69
2023/07/27 10:28:49;;;;;;;30.13;5.27;;;27.60;51.40;;;;;;5021665;28;20300;-68
2023/07/27 10:31:26;;;;;;;30.47;5.27;;;27.60;51.30;;;;;;5023858;28;20665;-68
2023/07/27 10:34:04;;;;;;;29.77;5.13;;;27.60;51.30;;;;;;5024241;28;20356;-64
2023/07/27 10:36:50;;;;;;;43.20;6.50;;;27.60;51.40;;;;;;5023614;28;20201;-65
2023/07/27 10:39:18;;;;;;;56.17;7.97;;;27.60;51.40;;;;;;5013934;28;20682;-66
2023/07/27 10:41:59;;;;;;;64.03;8.70;;;27.60;51.30;;;;;;5023450;28;20228;-64
2023/07/27 10:44:26;;;;;;;30.17;5.30;;;27.70;51.50;;;;;;5022148;28;20660;-65
2023/07/27 10:46:56;;;;;;;37.20;5.90;;;27.70;51.40;;;;;;5017952;28;20552;-64
2023/07/27 10:49:24;;;;;;;43.10;6.80;;;27.70;51.40;;;;;;5021179;28;20222;-70
2023/07/27 10:51:52;;;;;;;32.67;5.47;;;27.70;51.40;;;;;;5020985;28;20198;-65
2023/07/27 10:54:19;;;;;;;45.80;6.90;;;27.70;51.40;;;;;;5023064;27;20204;-65
2023/07/27 10:56:48;;;;;;;32.03;5.40;;;27.70;51.40;;;;;;5021249;28;20201;-73
2023/07/27 10:59:16;;;;;;;20.60;4.37;;;27.70;51.60;;;;;;5022009;28;20200;-72
2023/07/27 11:01:43;;;;;;;36.90;5.90;;;27.70;51.60;;;;;;5023678;28;20408;-63
2023/07/27 11:04:11;;;;;;;29.40;5.17;;;27.80;51.70;;;;;;5024159;28;20208;-64
2023/07/27 11:06:44;;;;;;;27.43;5.20;;;27.80;51.70;;;;;;5023149;28;20205;-74
2023/07/27 11:09:12;;;;;;;51.83;7.73;;;27.80;51.90;;;;;;5022199;27;20220;-64
2023/07/27 11:11:40;;;;;;;31.40;5.67;;;27.80;51.90;;;;;;5022399;28;20205;-68
2023/07/27 11:14:07;;;;;;;46.47;7.00;;;27.80;51.80;;;;;;5010306;28;20254;-72
2023/07/27 11:16:37;;;;;;;32.70;5.43;;;27.80;51.80;;;;;;5010175;28;20236;-65
2023/07/27 11:19:04;;;;;;;24.40;4.80;;;27.80;51.80;;;;;;5019626;28;20699;-65
2023/07/27 11:21:32;;;;;;;31.83;5.60;;;27.80;51.80;;;;;;5023591;28;20329;-71
2023/07/27 11:24:02;;;;;;;28.10;5.27;;;27.80;51.80;;;;;;5023052;28;20200;-64
2023/07/27 11:26:30;;;;;;;58.07;8.20;;;27.80;51.80;;;;;;5021977;28;20208;-70
2023/07/27 11:29:00;;;;;;;30.93;5.53;;;27.80;51.80;;;;;;5018016;28;20200;-71
2023/07/27 11:31:28;;;;;;;35.20;5.77;;;27.80;51.80;;;;;;5023727;28;20246;-65
2023/07/27 11:33:58;;;;;;;28.93;5.40;;;27.80;51.80;;;;;;5021928;28;20208;-65
2023/07/27 11:36:29;;;;;;;68.60;8.47;;;27.80;51.90;;;;;;5019996;28;20261;-65
2023/07/27 11:38:56;;;;;;;31.23;5.43;;;27.80;51.80;;;;;;5021765;28;20196;-64
2023/07/27 11:41:27;;;;;;;47.20;7.00;;;27.80;51.80;;;;;;5022243;28;20240;-64
2023/07/27 11:43:55;;;;;;;26.00;4.90;;;27.80;51.90;;;;;;5017053;28;20209;-65
2023/07/27 11:46:22;;;;;;;26.07;5.17;;;27.80;51.90;;;;;;5024430;28;20660;-64
2023/07/27 11:48:50;;;;;;;47.63;6.93;;;27.80;51.90;;;;;;5022311;28;20208;-65
2023/07/27 11:51:18;;;;;;;27.37;5.20;;;27.80;51.90;;;;;;5024430;28;20222;-67
2023/07/27 11:53:45;;;;;;;31.43;5.60;;;27.80;51.90;;;;;;5015991;28;20204;-64
2023/07/27 11:56:13;;;;;;;27.07;5.33;;;27.80;52.00;;;;;;5023671;28;20211;-66
2023/07/27 11:58:43;;;;;;;20.43;5.00;;;27.80;51.90;;;;;;5020760;28;20317;-64
2023/07/27 12:01:11;;;;;;;56.33;7.87;;;27.80;52.00;;;;;;5022593;28;20228;-64
2023/07/27 12:03:39;;;;;;;36.77;6.00;;;27.80;51.90;;;;;;5026410;28;20208;-68
2023/07/27 12:06:07;;;;;;;26.23;5.10;;;27.80;52.00;;;;;;5024607;28;20261;-63
2023/07/27 12:08:38;;;;;;;30.07;5.53;;;27.80;52.00;;;;;;5022624;28;20217;-64
2023/07/27 12:11:05;;;;;;;26.20;5.10;;;27.80;52.10;;;;;;5023353;28;20205;-65
2023/07/27 12:13:37;;;;;;;39.40;6.30;;;27.80;52.00;;;;;;5021715;28;20360;-65
2023/07/27 12:16:08;;;;;;;31.33;5.70;;;27.80;52.10;;;;;;5022405;28;20681;-65
2023/07/27 12:18:35;;;;;;;24.60;4.77;;;27.80;52.10;;;;;;5025773;28;20679;-64
2023/07/27 12:21:03;;;;;;;33.23;5.70;;;27.70;52.00;;;;;;5022646;28;20221;-64
2023/07/27 12:23:30;;;;;;;20.57;4.63;;;27.80;52.10;;;;;;5022259;28;20219;-64
2023/07/27 12:25:57;;;;;;;22.40;4.70;;;27.80;52.10;;;;;;5022856;28;20201;-64
2023/07/27 12:28:24;;;;;;;46.90;6.83;;;27.80;52.10;;;;;;5067988;28;20664;-65
2023/07/27 12:30:51;;;;;;;36.27;6.00;;;27.70;52.00;;;;;;5023945;28;20216;-64
2023/07/27 12:33:21;;;;;;;43.53;6.63;;;27.80;52.10;;;;;;5020506;28;20201;-65
2023/07/27 12:35:50;;;;;;;41.67;6.57;;;27.80;52.10;;;;;;5022786;28;20294;-64
2023/07/27 12:38:17;;;;;;;46.43;7.00;;;27.70;52.10;;;;;;5021927;28;20197;-64
2023/07/27 12:40:44;;;;;;;28.57;5.43;;;27.70;52.10;;;;;;5018253;28;20201;-64